createdAt,value
2022-08-26T00:00:49.697Z,35.73
2022-08-26T00:03:24.028Z,35.60
2022-08-26T00:05:57.472Z,35.55
2022-08-26T00:08:30.670Z,35.61
2022-08-26T00:11:04.356Z,35.67
2022-08-26T00:13:38.830Z,35.68
2022-08-26T00:16:13.281Z,35.76
2022-08-26T00:18:46.495Z,35.78
2022-08-26T00:21:20.003Z,36.47
2022-08-26T00:23:53.166Z,36.72
2022-08-26T00:26:28.560Z,36.83
2022-08-26T00:29:01.346Z,36.62
2022-08-26T00:31:34.691Z,36.83
2022-08-26T00:34:11.210Z,37.06
2022-08-26T00:36:45.325Z,37.08
2022-08-26T00:39:19.987Z,37.26
2022-08-26T00:41:53.578Z,37.17
2022-08-26T00:44:27.002Z,37.40
2022-08-26T00:47:04.465Z,37.33
2022-08-26T00:49:41.504Z,37.36
2022-08-26T00:52:17.271Z,37.03
2022-08-26T00:54:53.310Z,37.13
2022-08-26T00:57:27.141Z,37.67
2022-08-26T01:00:02.825Z,37.50
2022-08-26T01:02:36.190Z,37.36
2022-08-26T01:05:12.980Z,37.42
2022-08-26T01:07:46.762Z,37.39
2022-08-26T01:10:22.875Z,37.35
2022-08-26T01:12:58.982Z,37.46
2022-08-26T01:15:35.047Z,37.50
2022-08-26T01:18:09.210Z,37.54
2022-08-26T01:20:47.692Z,37.52
2022-08-26T01:23:21.698Z,37.57
2022-08-26T01:25:59.038Z,37.43
2022-08-26T01:28:35.304Z,37.45
2022-08-26T01:31:14.317Z,37.37
2022-08-26T01:33:52.423Z,37.27
2022-08-26T01:36:26.636Z,37.26
2022-08-26T01:39:00.693Z,37.09
2022-08-26T01:41:38.693Z,37.15
2022-08-26T01:44:16.755Z,37.89
2022-08-26T01:46:53.630Z,37.86
2022-08-26T01:49:28.743Z,38.05
2022-08-26T01:52:07.622Z,38.08
2022-08-26T01:54:46.281Z,38.21
2022-08-26T01:57:20.544Z,38.31
2022-08-26T01:59:57.417Z,38.32
2022-08-26T02:02:32.078Z,38.33
2022-08-26T02:05:08.907Z,38.62
2022-08-26T02:07:43.685Z,39.05
2022-08-26T02:10:18.129Z,39.04
2022-08-26T02:12:53.654Z,39.36
2022-08-26T02:15:28.318Z,39.19
2022-08-26T02:18:03.984Z,39.69
2022-08-26T02:20:38.567Z,40.04
2022-08-26T02:23:12.879Z,39.83
2022-08-26T02:25:50.784Z,40.03
2022-08-26T02:28:27.046Z,39.88
2022-08-26T02:31:02.677Z,39.74
2022-08-26T02:33:37.026Z,39.76
2022-08-26T02:36:13.410Z,40.11
2022-08-26T02:38:47.452Z,40.26
2022-08-26T02:41:23.075Z,40.35
2022-08-26T02:43:57.103Z,40.17
2022-08-26T02:46:32.155Z,40.00
2022-08-26T02:49:06.722Z,39.96
2022-08-26T02:51:40.857Z,39.88
2022-08-26T02:54:17.231Z,39.86
2022-08-26T02:56:51.646Z,39.73
2022-08-26T02:59:25.654Z,39.72
2022-08-26T03:02:01.538Z,39.71
2022-08-26T03:04:35.818Z,39.66
2022-08-26T03:07:10.131Z,39.96
2022-08-26T03:09:44.200Z,40.00
2022-08-26T03:12:18.279Z,39.97
2022-08-26T03:14:52.783Z,39.91
2022-08-26T03:17:26.858Z,39.98
2022-08-26T03:20:00.698Z,40.06
2022-08-26T03:22:36.079Z,40.46
2022-08-26T03:25:13.489Z,40.24
2022-08-26T03:27:49.249Z,40.24
2022-08-26T03:30:45.073Z,40.30
2022-08-26T03:33:16.942Z,40.25
2022-08-26T03:35:50.902Z,40.32
2022-08-26T03:38:25.915Z,40.22
2022-08-26T03:41:00.753Z,40.19
2022-08-26T03:43:34.540Z,40.43
2022-08-26T03:46:09.040Z,40.47
2022-08-26T03:48:43.013Z,40.40
2022-08-26T03:51:18.222Z,40.53
2022-08-26T03:53:51.719Z,40.49
2022-08-26T03:56:25.036Z,40.57
2022-08-26T03:58:59.147Z,40.80
2022-08-26T04:01:33.618Z,40.87
2022-08-26T04:04:07.222Z,40.90
2022-08-26T04:06:44.562Z,40.95
2022-08-26T04:09:18.150Z,40.90
2022-08-26T04:11:51.390Z,37.71
2022-08-26T04:14:26.222Z,40.21
2022-08-26T04:16:59.667Z,40.86
2022-08-26T04:19:33.707Z,41.01
2022-08-26T04:22:07.967Z,40.98
2022-08-26T04:24:41.397Z,40.79
2022-08-26T04:27:14.981Z,40.42
2022-08-26T04:29:53.566Z,40.11
2022-08-26T04:32:24.868Z,39.93
2022-08-26T04:34:58.079Z,39.99
2022-08-26T04:37:34.631Z,39.70
2022-08-26T04:40:10.404Z,39.04
2022-08-26T04:42:44.535Z,38.95
2022-08-26T04:45:18.006Z,39.01
2022-08-26T04:47:57.722Z,39.05
2022-08-26T04:50:31.094Z,39.20
2022-08-26T04:53:05.549Z,39.30
2022-08-26T04:55:42.860Z,39.44
2022-08-26T04:58:18.135Z,39.24
2022-08-26T05:00:53.578Z,39.01
2022-08-26T05:03:30.527Z,39.33
2022-08-26T05:06:06.276Z,39.15
2022-08-26T05:08:39.641Z,39.17
2022-08-26T05:11:14.490Z,38.89
2022-08-26T05:13:47.789Z,39.01
2022-08-26T05:16:21.087Z,39.14
2022-08-26T05:18:55.008Z,39.23
2022-08-26T05:21:29.899Z,39.00
2022-08-26T05:24:03.170Z,38.97
2022-08-26T05:26:36.656Z,38.72
2022-08-26T05:29:10.163Z,38.84
2022-08-26T05:31:43.423Z,39.06
2022-08-26T05:34:16.657Z,39.20
2022-08-26T05:36:49.777Z,39.50
2022-08-26T05:39:24.619Z,39.20
2022-08-26T05:41:57.861Z,38.71
2022-08-26T05:44:53.819Z,38.49
2022-08-26T05:47:07.576Z,38.32
2022-08-26T05:49:43.745Z,38.16
2022-08-26T05:52:16.979Z,37.81
2022-08-26T05:54:50.344Z,37.49
2022-08-26T05:57:23.540Z,37.81
2022-08-26T05:59:57.221Z,37.51
2022-08-26T06:02:30.804Z,37.15
2022-08-26T06:05:04.407Z,37.01
2022-08-26T06:07:56.913Z,36.54
2022-08-26T06:10:32.858Z,36.12
2022-08-26T06:13:11.913Z,35.71
2022-08-26T06:15:44.309Z,36.05
2022-08-26T06:18:20.135Z,34.48
2022-08-26T06:20:57.850Z,33.99
2022-08-26T06:23:48.842Z,33.12
2022-08-26T06:26:22.318Z,33.12
2022-08-26T06:28:56.198Z,32.72
2022-08-26T06:31:30.156Z,32.41
2022-08-26T06:34:08.539Z,32.48
2022-08-26T06:36:39.592Z,31.16
2022-08-26T06:39:14.710Z,30.47
2022-08-26T06:41:48.286Z,29.11
2022-08-26T06:44:23.505Z,27.62
2022-08-26T06:46:56.816Z,25.65
2022-08-26T06:49:30.438Z,23.58
2022-08-26T06:52:03.883Z,23.19
2022-08-26T06:54:37.251Z,22.10
2022-08-26T06:57:12.268Z,21.19
2022-08-26T06:59:48.173Z,20.83
2022-08-26T07:02:23.546Z,20.04
2022-08-26T07:04:58.667Z,19.56
2022-08-26T07:07:31.695Z,18.89
2022-08-26T07:10:05.271Z,18.75
2022-08-26T07:12:39.144Z,18.65
2022-08-26T07:15:14.365Z,18.33
2022-08-26T07:17:48.115Z,17.41
2022-08-26T07:20:21.894Z,16.66
2022-08-26T07:22:55.111Z,16.29
2022-08-26T07:25:28.235Z,16.33
2022-08-26T07:28:02.046Z,15.51
2022-08-26T07:30:39.184Z,15.19
2022-08-26T07:33:14.133Z,15.29
2022-08-26T07:35:47.469Z,14.89
2022-08-26T07:38:20.422Z,14.74
2022-08-26T07:40:53.819Z,14.08
2022-08-26T07:43:27.492Z,14.17
2022-08-26T07:46:03.114Z,14.34
2022-08-26T07:48:37.785Z,14.07
2022-08-26T07:51:11.051Z,13.71
2022-08-26T07:53:44.690Z,13.76
2022-08-26T07:56:19.635Z,13.33
2022-08-26T07:58:53.375Z,13.41
2022-08-26T08:01:29.090Z,13.42
2022-08-26T08:04:05.356Z,13.24
2022-08-26T08:06:38.989Z,13.12
2022-08-26T08:09:13.038Z,14.77
2022-08-26T08:11:47.506Z,13.09
2022-08-26T08:14:22.293Z,12.97
2022-08-26T08:16:55.733Z,12.73
2022-08-26T08:19:36.639Z,12.30
2022-08-26T08:22:05.131Z,12.67
2022-08-26T08:24:39.159Z,13.71
2022-08-26T08:27:12.537Z,16.07
2022-08-26T08:29:47.491Z,13.20
2022-08-26T08:32:21.002Z,12.37
2022-08-26T08:34:54.432Z,12.26
2022-08-26T08:37:27.780Z,12.11
2022-08-26T08:40:01.943Z,12.96
2022-08-26T08:42:46.889Z,13.18
2022-08-26T08:45:23.716Z,12.88
2022-08-26T08:47:59.813Z,12.49
2022-08-26T08:50:36.544Z,12.35
2022-08-26T08:53:16.022Z,12.58
2022-08-26T08:56:02.160Z,12.87
2022-08-26T08:58:46.534Z,13.21
2022-08-26T09:01:28.727Z,12.68
2022-08-26T09:04:12.070Z,11.70
2022-08-26T09:06:48.671Z,11.48
2022-08-26T09:09:25.943Z,11.29
2022-08-26T09:11:59.560Z,11.28
2022-08-26T09:14:33.865Z,11.38
2022-08-26T09:17:10.805Z,11.93
2022-08-26T09:19:47.009Z,12.64
2022-08-26T09:22:31.710Z,12.09
2022-08-26T09:25:06.374Z,10.84
2022-08-26T09:27:47.476Z,10.77
2022-08-26T09:30:26.598Z,11.24
2022-08-26T09:33:10.213Z,11.62
2022-08-26T09:35:44.574Z,11.25
2022-08-26T09:38:29.239Z,10.57
2022-08-26T09:41:05.120Z,10.17
2022-08-26T09:43:37.136Z,11.25
2022-08-26T09:46:16.899Z,13.46
2022-08-26T09:48:51.803Z,13.42
2022-08-26T09:51:32.639Z,14.18
2022-08-26T09:54:08.135Z,13.66
2022-08-26T09:56:42.801Z,13.24
2022-08-26T09:59:18.900Z,12.73
2022-08-26T10:01:53.366Z,13.01
2022-08-26T10:04:28.315Z,12.93
2022-08-26T10:07:03.681Z,13.67
2022-08-26T10:09:39.605Z,14.78
2022-08-26T10:14:58.945Z,17.28
2022-08-26T10:17:38.337Z,17.56
2022-08-26T10:20:22.574Z,17.32
2022-08-26T10:22:51.139Z,17.75
2022-08-26T10:25:28.703Z,17.72
2022-08-26T10:28:08.801Z,17.61
2022-08-26T10:30:47.434Z,16.77
2022-08-26T10:33:21.469Z,14.51
2022-08-26T10:35:59.400Z,13.11
2022-08-26T10:38:35.743Z,12.46
2022-08-26T10:41:16.834Z,13.40
2022-08-26T10:43:53.554Z,14.16
2022-08-26T10:46:30.502Z,14.86
2022-08-26T10:49:07.852Z,13.61
2022-08-26T10:51:46.474Z,12.80
2022-08-26T10:54:24.027Z,13.51
2022-08-26T10:57:02.470Z,15.13
2022-08-26T10:59:55.084Z,15.33
2022-08-26T11:02:32.426Z,13.91
2022-08-26T11:05:09.507Z,13.19
2022-08-26T11:07:46.273Z,14.22
2022-08-26T11:10:35.996Z,14.76
2022-08-26T11:13:10.527Z,14.99
2022-08-26T11:16:03.504Z,12.44
2022-08-26T11:18:42.081Z,12.88
2022-08-26T11:22:06.719Z,14.29
2022-08-26T11:24:50.843Z,14.77
2022-08-26T11:27:56.245Z,14.69
2022-08-26T11:30:58.479Z,15.53
2022-08-26T11:34:03.895Z,16.25
2022-08-26T11:37:00.756Z,15.18
2022-08-26T11:39:38.407Z,14.09
2022-08-26T11:42:23.037Z,13.17
2022-08-26T11:44:58.889Z,12.22
2022-08-26T11:47:34.220Z,11.11
2022-08-26T11:50:17.547Z,10.24
2022-08-26T11:52:59.430Z,9.71
2022-08-26T11:55:34.855Z,9.52
2022-08-26T11:58:08.911Z,9.03
2022-08-26T12:00:50.797Z,8.77
2022-08-26T12:03:27.572Z,8.87
2022-08-26T12:06:01.751Z,8.96
2022-08-26T12:08:39.908Z,9.20
2022-08-26T12:11:17.654Z,9.43
2022-08-26T12:14:03.459Z,9.04
2022-08-26T12:16:37.460Z,9.11
2022-08-26T12:19:27.385Z,11.01
2022-08-26T12:22:04.404Z,10.08
2022-08-26T12:24:39.808Z,9.85
2022-08-26T12:27:19.131Z,10.06
2022-08-26T12:30:08.401Z,10.23
2022-08-26T12:32:57.317Z,10.09
2022-08-26T12:35:22.479Z,10.08
2022-08-26T12:37:55.708Z,10.04
2022-08-26T12:40:39.616Z,11.57
2022-08-26T12:43:17.279Z,9.86
2022-08-26T12:46:00.710Z,10.06
2022-08-26T12:48:38.561Z,10.10
2022-08-26T12:51:23.182Z,10.28
2022-08-26T12:54:00.616Z,10.15
2022-08-26T12:56:38.591Z,9.86
2022-08-26T12:59:23.377Z,9.71
2022-08-26T13:01:57.534Z,9.54
2022-08-26T13:04:41.940Z,9.17
2022-08-26T13:07:18.637Z,9.23
2022-08-26T13:09:54.580Z,9.30
2022-08-26T13:12:31.648Z,9.63
2022-08-26T13:15:07.990Z,9.94
2022-08-26T13:17:42.206Z,10.22
2022-08-26T13:20:16.295Z,10.64
2022-08-26T13:22:58.519Z,10.24
2022-08-26T13:25:27.113Z,9.84
2022-08-26T13:28:01.102Z,9.78
2022-08-26T13:30:34.852Z,9.71
2022-08-26T13:33:09.378Z,9.75
2022-08-26T13:35:44.765Z,9.62
2022-08-26T13:38:33.013Z,9.28
2022-08-26T13:40:54.434Z,8.97
2022-08-26T13:43:28.865Z,8.58
2022-08-26T13:46:03.150Z,8.73
2022-08-26T13:48:38.282Z,8.79
2022-08-26T13:51:13.953Z,9.22
2022-08-26T13:53:48.041Z,9.68
2022-08-26T13:56:23.002Z,10.21
2022-08-26T13:58:57.188Z,10.17
2022-08-26T14:01:32.594Z,10.66
2022-08-26T14:04:07.395Z,10.74
2022-08-26T14:06:41.234Z,11.06
2022-08-26T14:09:15.268Z,11.05
2022-08-26T14:11:54.462Z,10.66
2022-08-26T14:14:25.189Z,10.81
2022-08-26T14:17:00.504Z,10.85
2022-08-26T14:19:34.841Z,10.75
2022-08-26T14:22:12.500Z,10.72
2022-08-26T14:24:46.517Z,10.70
2022-08-26T14:27:20.804Z,10.60
2022-08-26T14:29:54.865Z,10.84
2022-08-26T14:32:30.360Z,11.04
2022-08-26T14:35:04.422Z,11.32
2022-08-26T14:37:38.408Z,11.54
2022-08-26T14:40:14.982Z,11.94
2022-08-26T14:42:53.804Z,11.89
2022-08-26T14:45:29.056Z,12.35
2022-08-26T14:48:03.004Z,12.45
2022-08-26T14:50:37.302Z,12.70
2022-08-26T14:53:28.751Z,12.97
2022-08-26T14:56:02.650Z,13.29
2022-08-26T14:58:38.421Z,13.12
2022-08-26T15:01:13.020Z,13.11
2022-08-26T15:03:48.974Z,13.06
2022-08-26T15:06:23.754Z,13.31
2022-08-26T15:08:57.665Z,13.38
2022-08-26T15:11:31.700Z,13.20
2022-08-26T15:14:07.487Z,13.61
2022-08-26T15:16:43.319Z,13.85
2022-08-26T15:19:18.925Z,13.91
2022-08-26T15:21:53.231Z,14.62
2022-08-26T15:24:28.943Z,14.87
2022-08-26T15:27:02.962Z,14.85
2022-08-26T15:29:37.528Z,15.20
2022-08-26T15:32:11.499Z,15.26
2022-08-26T15:34:45.446Z,15.65
2022-08-26T15:37:19.359Z,16.06
2022-08-26T15:39:53.796Z,15.87
2022-08-26T15:42:27.761Z,16.07
2022-08-26T15:45:01.858Z,16.36
2022-08-26T15:47:55.917Z,16.53
2022-08-26T15:50:13.384Z,16.74
2022-08-26T15:52:47.913Z,16.95
2022-08-26T15:55:23.385Z,17.00
2022-08-26T15:57:57.657Z,17.13
2022-08-26T16:00:31.521Z,17.30
2022-08-26T16:03:08.604Z,17.46
2022-08-26T16:05:44.305Z,17.71
2022-08-26T16:08:18.363Z,17.96
2022-08-26T16:10:52.981Z,18.05
2022-08-26T16:13:26.924Z,18.19
2022-08-26T16:16:03.098Z,18.35
2022-08-26T16:18:38.064Z,18.34
2022-08-26T16:21:14.177Z,18.69
2022-08-26T16:23:48.679Z,19.02
2022-08-26T16:26:25.414Z,19.09
2022-08-26T16:28:59.472Z,19.03
2022-08-26T16:31:33.489Z,19.11
2022-08-26T16:34:08.170Z,19.02
2022-08-26T16:36:42.360Z,19.28
2022-08-26T16:39:16.435Z,19.36
2022-08-26T16:41:50.428Z,19.67
2022-08-26T16:44:25.034Z,19.67
2022-08-26T16:47:00.691Z,19.79
2022-08-26T16:49:34.656Z,19.81
2022-08-26T16:52:10.095Z,19.97
2022-08-26T16:54:44.287Z,20.10
2022-08-26T16:57:18.193Z,20.14
2022-08-26T16:59:52.202Z,20.21
2022-08-26T17:02:26.688Z,20.35
2022-08-26T17:05:00.840Z,20.44
2022-08-26T17:07:35.801Z,20.52
2022-08-26T17:10:13.001Z,20.53
2022-08-26T17:12:47.091Z,20.46
2022-08-26T17:15:22.127Z,20.57
2022-08-26T17:17:56.189Z,20.73
2022-08-26T17:20:30.124Z,20.87
2022-08-26T17:23:03.401Z,20.76
2022-08-26T17:25:36.771Z,20.80
2022-08-26T17:28:13.500Z,20.83
2022-08-26T17:30:45.216Z,20.99
2022-08-26T17:33:24.448Z,21.00
2022-08-26T17:35:55.218Z,21.04
2022-08-26T17:38:29.669Z,21.05
2022-08-26T17:41:03.101Z,21.14
2022-08-26T17:43:36.665Z,21.21
2022-08-26T17:46:11.491Z,21.25
2022-08-26T17:48:45.504Z,21.25
2022-08-26T17:51:20.167Z,21.57
2022-08-26T17:53:53.922Z,21.29
2022-08-26T17:56:30.061Z,21.28
2022-08-26T17:59:04.105Z,21.38
2022-08-26T18:01:38.714Z,21.54
2022-08-26T18:04:14.906Z,21.55
2022-08-26T18:06:48.275Z,21.57
2022-08-26T18:09:21.751Z,21.63
2022-08-26T18:11:54.959Z,21.62
2022-08-26T18:14:28.254Z,21.64
2022-08-26T18:17:01.526Z,21.58
2022-08-26T18:19:35.427Z,21.74
2022-08-26T18:22:08.871Z,21.74
2022-08-26T18:24:42.382Z,21.95
2022-08-26T18:27:17.401Z,21.89
2022-08-26T18:29:50.664Z,21.80
2022-08-26T18:32:23.934Z,21.86
2022-08-26T18:34:57.236Z,22.01
2022-08-26T18:37:31.638Z,22.04
2022-08-26T18:40:08.420Z,22.16
2022-08-26T18:42:42.295Z,22.47
2022-08-26T18:45:16.362Z,22.66
2022-08-26T18:47:49.591Z,22.63
2022-08-26T18:50:23.104Z,22.44
2022-08-26T18:52:56.407Z,22.57
2022-08-26T18:55:29.812Z,22.67
2022-08-26T18:58:03.126Z,22.65
2022-08-26T19:00:36.390Z,22.79
2022-08-26T19:03:18.712Z,22.86
2022-08-26T19:05:45.775Z,22.85
2022-08-26T19:08:19.065Z,23.05
2022-08-26T19:10:52.369Z,23.03
2022-08-26T19:13:26.267Z,23.04
2022-08-26T19:15:59.585Z,23.09
2022-08-26T19:18:34.784Z,23.15
2022-08-26T19:21:08.401Z,23.25
2022-08-26T19:23:42.404Z,23.38
2022-08-26T19:26:17.500Z,23.43
2022-08-26T19:28:50.996Z,23.39
2022-08-26T19:31:24.807Z,23.42
2022-08-26T19:33:59.173Z,23.49
2022-08-26T19:36:32.997Z,23.68
2022-08-26T19:39:10.448Z,23.73
2022-08-26T19:41:42.737Z,23.77
2022-08-26T19:44:20.327Z,21.65
2022-08-26T19:46:57.116Z,23.74
2022-08-26T19:49:30.816Z,23.92
2022-08-26T19:52:07.375Z,24.07
2022-08-26T19:54:41.806Z,24.28
2022-08-26T19:57:16.547Z,24.43
2022-08-26T19:59:50.265Z,24.54
2022-08-26T20:02:23.845Z,24.75
2022-08-26T20:04:57.699Z,24.91
2022-08-26T20:07:31.280Z,24.99
2022-08-26T20:10:05.644Z,25.01
2022-08-26T20:12:39.236Z,25.25
2022-08-26T20:15:14.440Z,25.16
2022-08-26T20:17:47.793Z,25.24
2022-08-26T20:20:40.766Z,25.28
2022-08-26T20:23:15.835Z,25.35
2022-08-26T20:25:49.081Z,25.68
2022-08-26T20:28:22.814Z,26.26
2022-08-26T20:30:56.377Z,27.44
2022-08-26T20:33:30.489Z,28.56
2022-08-26T20:36:08.108Z,28.94
2022-08-26T20:38:41.787Z,29.31
2022-08-26T20:41:15.593Z,29.36
2022-08-26T20:43:49.241Z,29.47
2022-08-26T20:46:24.870Z,29.23
2022-08-26T20:48:58.234Z,29.92
2022-08-26T20:51:32.323Z,30.24
2022-08-26T20:54:06.341Z,30.15
2022-08-26T20:56:40.573Z,30.25
2022-08-26T20:59:14.359Z,30.66
2022-08-26T21:01:51.935Z,30.81
2022-08-26T21:04:25.480Z,30.79
2022-08-26T21:06:58.523Z,26.18
2022-08-26T21:09:31.895Z,29.74
2022-08-26T21:12:06.116Z,29.75
2022-08-26T21:14:39.591Z,29.93
2022-08-26T21:17:13.201Z,29.85
2022-08-26T21:19:46.659Z,29.71
2022-08-26T21:22:20.560Z,29.63
2022-08-26T21:24:54.146Z,29.41
2022-08-26T21:27:28.015Z,29.48
2022-08-26T21:30:01.609Z,29.27
2022-08-26T21:32:36.211Z,29.69
2022-08-26T21:35:11.632Z,29.51
2022-08-26T21:37:45.157Z,29.86
2022-08-26T21:40:19.223Z,29.55
2022-08-26T21:42:52.616Z,29.71
2022-08-26T21:45:26.099Z,29.75
2022-08-26T21:47:59.870Z,29.87
2022-08-26T21:50:33.397Z,29.91
2022-08-26T21:53:06.899Z,30.19
2022-08-26T21:55:42.368Z,30.45
2022-08-26T21:58:16.448Z,30.48
2022-08-26T22:00:52.181Z,30.43
2022-08-26T22:03:25.992Z,30.30
2022-08-26T22:06:01.315Z,30.00
2022-08-26T22:08:35.206Z,29.95
2022-08-26T22:11:09.628Z,29.78
2022-08-26T22:13:44.427Z,29.53
2022-08-26T22:16:19.304Z,30.22
2022-08-26T22:18:53.452Z,29.94
2022-08-26T22:21:28.875Z,30.61
2022-08-26T22:24:03.002Z,30.21
2022-08-26T22:26:37.268Z,30.21
2022-08-26T22:29:10.849Z,29.94
2022-08-26T22:31:45.413Z,30.59
2022-08-26T22:34:20.863Z,29.84
2022-08-26T22:36:54.702Z,29.50
2022-08-26T22:39:29.021Z,29.67
2022-08-26T22:42:04.284Z,31.09
2022-08-26T22:44:37.863Z,31.97
2022-08-26T22:47:11.568Z,32.45
2022-08-26T22:49:45.868Z,32.09
2022-08-26T22:52:19.230Z,32.29
2022-08-26T22:54:53.088Z,32.01
2022-08-26T22:57:26.844Z,31.96
2022-08-26T23:00:00.963Z,31.43
2022-08-26T23:02:35.146Z,31.53
2022-08-26T23:05:11.612Z,31.93
2022-08-26T23:07:45.055Z,31.57
2022-08-26T23:10:18.880Z,31.97
2022-08-26T23:12:53.275Z,31.80
2022-08-26T23:15:27.492Z,31.96
2022-08-26T23:18:01.393Z,32.29
2022-08-26T23:20:36.096Z,32.30
2022-08-26T23:23:10.713Z,33.14
2022-08-26T23:25:44.556Z,33.48
2022-08-26T23:28:18.623Z,32.45
2022-08-26T23:30:53.810Z,32.38
2022-08-26T23:33:29.342Z,32.68
2022-08-26T23:36:08.534Z,33.03
2022-08-26T23:38:42.860Z,33.23
2022-08-26T23:41:17.208Z,33.92
2022-08-26T23:43:50.853Z,33.53
2022-08-26T23:46:24.547Z,33.55
2022-08-26T23:48:58.050Z,33.61
2022-08-26T23:51:49.472Z,34.12
2022-08-26T23:54:22.939Z,34.29
2022-08-26T23:56:57.036Z,33.94
2022-08-26T23:59:30.605Z,34.39
